Time;durP1;ratioP1;P1;durP2;ratioP2;P2;SDS_P1;SDS_P2;PMS_P1;PMS_P2;Temp;Humidity;BMP_temperature;BMP_pressure;BME280_temperature;BME280_humidity;BME280_pressure;Samples;Min_cycle;Max_cycle;Signal;HPM_P1;HPM_P2
2022/09/16 00:00:28;;;;;;;;;39.25;34.75;;;;;21.82;50.64;97719.31;6171571;28;97035;-56
2022/09/16 00:03:33;;;;;;;;;39.60;34.60;;;;;21.80;50.31;97732.53;6166315;28;96950;-55
2022/09/16 00:06:36;;;;;;;;;30.00;30.00;;;;;21.77;50.39;97725.78;6164352;28;97473;-56
2022/09/16 00:09:41;;;;;;;;;34.80;32.40;;;;;21.76;50.81;97728.84;6165945;28;97348;-57
2022/09/16 00:12:44;;;;;;;;;37.00;33.60;;;;;21.72;50.66;97747.06;6162161;28;96627;-57
2022/09/16 00:15:50;;;;;;;;;38.25;34.50;;;;;21.71;50.24;97740.78;6171090;28;97463;-57
2022/09/16 00:18:55;;;;;;;;;34.80;32.00;;;;;21.71;51.13;97739.97;6170090;28;96532;-57
2022/09/16 00:21:58;;;;;;;;;40.20;35.60;;;;;21.73;51.39;97745.94;6167689;28;97478;-55
2022/09/16 00:25:04;;;;;;;;;51.40;43.00;;;;;21.73;50.92;97740.47;6163147;28;97119;-56
2022/09/16 00:28:07;;;;;;;;;43.00;37.60;;;;;21.74;51.02;97742.91;6162975;28;98464;-55
2022/09/16 00:31:10;;;;;;;;;43.00;37.00;;;;;21.77;51.27;97752.41;6163333;28;97025;-56
2022/09/16 00:34:14;;;;;;;;;25.50;25.50;;;;;21.77;51.01;97741.44;6163147;28;97433;-56
2022/09/16 00:37:18;;;;;;;;;38.60;33.60;;;;;21.77;51.04;97753.22;6162431;28;96944;-58
2022/09/16 00:40:22;;;;;;;;;45.25;39.00;;;;;21.77;51.06;97750.47;6162733;28;97487;-57
2022/09/16 00:43:26;;;;;;;;;38.75;34.75;;;;;21.53;50.98;97719.94;6162684;28;96749;-57
2022/09/16 00:46:34;;;;;;;;;46.50;39.75;;;;;21.78;50.88;97756.75;6168559;28;97603;-57
2022/09/16 00:49:38;;;;;;;;;40.00;35.00;;;;;21.78;50.63;97748.53;6164138;28;96652;-55
2022/09/16 00:52:42;;;;;;;;;47.00;40.00;;;;;21.79;50.43;97748.22;6168126;28;97289;-56
2022/09/16 00:55:48;;;;;;;;;23.40;21.80;;;;;21.81;50.58;97742.38;6166854;28;97508;-59
2022/09/16 00:58:55;;;;;;;;;24.40;23.80;;;;;21.81;50.69;97751.44;6161003;28;97002;-63
2022/09/16 01:02:03;;;;;;;;;43.00;38.00;;;;;21.80;50.60;97749.00;6169589;28;96761;-55
2022/09/16 01:05:11;;;;;;;;;23.80;22.80;;;;;21.80;50.51;97752.56;6174350;28;96611;-65
2022/09/16 01:08:14;;;;;;;;;40.00;35.80;;;;;21.59;50.81;97719.47;6168981;28;97021;-55
2022/09/16 01:11:19;;;;;;;;;38.50;34.25;;;;;21.81;50.74;97756.91;6160803;28;97596;-57
2022/09/16 01:18:00;;;;;;;;;38.25;34.25;;;;;21.80;50.46;97758.03;6154364;28;96675;-58
2022/09/16 01:21:25;;;;;;;;;44.00;37.60;;;;;21.82;50.62;97768.69;6166302;28;97031;-55
2022/09/16 01:24:49;;;;;;;;;41.20;36.40;;;;;21.82;50.39;97772.25;6151930;28;96914;-61
2022/09/16 01:28:21;;;;;;;;;39.00;35.00;;;;;21.80;50.22;97769.00;6162773;28;97443;-56
2022/09/16 01:31:34;;;;;;;;;42.00;36.50;;;;;21.82;50.20;97772.25;6160848;28;98067;-58
2022/09/16 01:34:49;;;;;;;;;40.00;35.40;;;;;21.82;50.56;97771.44;6162437;28;97451;-57
2022/09/16 01:38:01;;;;;;;;;41.00;36.00;;;;;21.82;50.51;97771.44;6163278;28;97378;-55
2022/09/16 01:41:09;;;;;;;;;37.50;34.00;;;;;21.83;50.31;97768.38;6158665;28;96681;-57
2022/09/16 01:44:25;;;;;;;;;20.40;18.60;;;;;21.83;50.20;97765.66;6161887;28;97263;-56
2022/09/16 01:47:36;;;;;;;;;27.60;27.60;;;;;21.83;50.54;97771.13;6161558;28;96942;-58
2022/09/16 01:50:46;;;;;;;;;36.60;33.80;;;;;21.84;50.48;97770.00;6160198;28;97229;-55
2022/09/16 01:53:55;;;;;;;;;44.80;38.80;;;;;21.84;50.00;97767.28;6169947;28;96789;-55
2022/09/16 01:57:04;;;;;;;;;51.60;43.00;;;;;21.84;49.94;97766.47;6162002;28;97542;-55
2022/09/16 02:00:12;;;;;;;;;37.40;33.60;;;;;21.81;50.13;97764.34;6163938;28;96706;-55
2022/09/16 02:03:21;;;;;;;;;42.60;37.60;;;;;21.82;49.85;97764.03;6169490;28;97535;-56
2022/09/16 02:06:28;;;;;;;;;41.00;36.00;;;;;21.82;50.11;97760.47;6178011;28;97940;-57
2022/09/16 02:09:37;;;;;;;;;44.80;37.80;;;;;21.81;49.99;97758.84;6168256;28;96598;-60
2022/09/16 02:12:45;;;;;;;;;37.80;34.40;;;;;21.80;49.80;97751.75;6160944;28;97107;-57
2022/09/16 02:15:52;;;;;;;;;39.00;34.75;;;;;21.79;49.74;97767.44;6160739;28;96484;-56
2022/09/16 02:19:01;;;;;;;;;34.60;32.20;;;;;21.79;49.52;97767.44;6165371;28;97415;-56
2022/09/16 02:22:16;;;;;;;;;55.00;45.75;;;;;21.78;49.47;97768.56;6171718;28;96873;-60
2022/09/16 02:25:21;;;;;;;;;41.60;36.40;;;;;21.75;49.46;97771.91;6165343;28;96972;-56
2022/09/16 02:28:30;;;;;;;;;50.75;42.75;;;;;21.74;50.01;97775.81;6175443;28;97965;-58
2022/09/16 02:31:37;;;;;;;;;61.00;50.60;;;;;21.72;50.00;97769.81;6152932;28;96497;-54
2022/09/16 02:34:45;;;;;;;;;41.00;36.00;;;;;21.71;50.23;97770.13;6164169;28;97054;-58
2022/09/16 02:37:53;;;;;;;;;44.80;38.80;;;;;21.60;49.94;97769.63;6165808;28;96520;-56
2022/09/16 02:41:00;;;;;;;;;20.60;19.40;;;;;21.67;49.75;97782.88;6168366;28;97494;-57
2022/09/16 02:44:04;;;;;;;;;47.40;39.80;;;;;21.66;50.19;97782.06;6164915;28;97166;-56
2022/09/16 02:47:13;;;;;;;;;41.00;36.00;;;;;21.66;50.16;97787.56;6163604;28;98096;-55
2022/09/16 02:50:25;;;;;;;;;43.80;37.80;;;;;21.65;50.09;97782.41;6165248;28;96961;-56
2022/09/16 02:53:45;;;;;;;;;34.40;32.00;;;;;21.64;50.03;97770.63;6165013;28;97970;-55
2022/09/16 02:56:48;;;;;;;;;43.40;37.40;;;;;21.64;50.30;97781.59;6166333;28;97537;-60
2022/09/16 02:59:52;;;;;;;;;28.50;27.00;;;;;21.65;49.90;97788.69;6165390;28;96704;-55
2022/09/16 03:02:55;;;;;;;;;45.80;38.80;;;;;21.64;49.76;97783.53;6161612;28;98284;-59
2022/09/16 03:06:14;;;;;;;;;46.40;39.40;;;;;21.64;50.09;97781.59;6164387;28;96895;-57
2022/09/16 03:09:22;;;;;;;;;41.00;36.00;;;;;21.63;49.51;97779.97;6164231;28;99025;-60
2022/09/16 03:12:42;;;;;;;;;34.40;31.80;;;;;21.60;49.75;97775.13;6161357;28;97136;-60
2022/09/16 03:15:59;;;;;;;;;19.80;18.60;;;;;21.58;49.53;97767.22;6162562;28;97882;-58
2022/09/16 03:19:18;;;;;;;;;52.00;44.00;;;;;21.54;49.51;97765.44;6162870;28;97536;-58
2022/09/16 03:22:37;;;;;;;;;42.60;36.80;;;;;21.52;49.34;97775.91;6164289;28;97568;-57
2022/09/16 03:25:51;;;;;;;;;45.00;38.20;;;;;21.51;48.94;97777.84;6163382;28;97547;-58
2022/09/16 03:29:06;;;;;;;;;46.25;39.50;;;;;21.50;49.19;97775.44;6163479;28;98541;-56
2022/09/16 03:32:16;;;;;;;;;24.25;23.50;;;;;21.49;49.13;97777.38;6158975;28;97130;-58
2022/09/16 03:35:26;;;;;;;;;42.00;36.50;;;;;21.49;49.10;97774.63;6161812;28;97113;-56
2022/09/16 03:38:33;;;;;;;;;38.25;35.00;;;;;21.49;48.90;97769.16;6160936;28;97087;-58
2022/09/16 03:41:37;;;;;;;;;44.80;38.00;;;;;21.49;48.97;97780.13;6167016;28;97316;-55
2022/09/16 03:44:41;;;;;;;;;36.00;33.25;;;;;21.49;48.52;97774.63;6163138;28;97148;-56
2022/09/16 03:47:46;;;;;;;;;40.40;35.40;;;;;21.39;48.93;97757.66;6159056;28;97096;-58
2022/09/16 03:50:50;;;;;;;;;40.00;35.60;;;;;21.50;48.74;97772.72;6157660;28;96975;-55
2022/09/16 03:53:54;;;;;;;;;39.60;34.80;;;;;21.50;48.77;97770.75;6160288;28;97169;-55
2022/09/16 03:56:59;;;;;;;;;32.60;31.00;;;;;21.44;48.90;97768.50;6160041;28;97977;-57
2022/09/16 04:00:03;;;;;;;;;37.40;34.40;;;;;21.50;48.82;97776.22;6159405;28;97474;-55
2022/09/16 04:03:13;;;;;;;;;38.00;34.20;;;;;21.50;48.49;97773.47;6162030;28;98878;-58
2022/09/16 04:06:17;;;;;;;;;38.80;34.80;;;;;21.49;48.77;97765.59;6167985;28;97399;-55
2022/09/16 04:09:21;;;;;;;;;47.40;40.20;;;;;21.49;48.70;97771.09;6162123;28;97424;-57
2022/09/16 04:12:25;;;;;;;;;40.00;35.00;;;;;21.49;48.82;97771.09;6162019;28;96883;-55
2022/09/16 04:15:28;;;;;;;;;45.17;38.67;;;;;21.46;48.82;97786.22;6161505;28;97440;-58
2022/09/16 04:18:33;;;;;;;;;30.80;29.80;;;;;21.45;48.49;97790.09;6159492;28;97210;-57
2022/09/16 04:21:36;;;;;;;;;42.60;37.00;;;;;21.43;48.86;97791.53;6159252;28;97030;-57
2022/09/16 04:24:41;;;;;;;;;39.00;35.20;;;;;21.42;48.68;97782.50;6160781;28;97063;-58
2022/09/16 04:27:44;;;;;;;;;44.00;38.00;;;;;21.41;48.71;97797.34;6171984;28;96727;-57
2022/09/16 04:30:48;;;;;;;;;48.25;41.25;;;;;21.42;48.52;97807.19;6161031;28;96705;-55
2022/09/16 04:33:51;;;;;;;;;42.80;37.80;;;;;21.43;48.68;97803.31;6160631;28;97502;-56
2022/09/16 04:36:55;;;;;;;;;43.20;37.00;;;;;21.45;48.78;97805.75;6161063;28;97299;-55
2022/09/16 04:40:00;;;;;;;;;32.60;31.00;;;;;21.46;48.79;97807.34;6152028;28;97096;-57
2022/09/16 04:43:07;;;;;;;;;40.75;36.00;;;;;21.49;49.23;97806.72;6158672;28;96877;-57
2022/09/16 04:46:12;;;;;;;;;45.33;39.17;;;;;21.48;49.23;97816.06;6159327;28;97119;-59
2022/09/16 04:49:15;;;;;;;;;47.00;40.20;;;;;21.47;48.73;97815.25;6158084;28;97548;-58
2022/09/16 04:52:18;;;;;;;;;55.40;46.40;;;;;21.50;48.84;97805.63;6158475;28;97296;-62
2022/09/16 04:55:23;;;;;;;;;39.40;35.00;;;;;21.51;49.18;97813.50;6157979;28;97050;-55
2022/09/16 04:58:29;;;;;;;;;30.50;30.25;;;;;21.53;49.28;97805.78;6157799;28;96698;-55
2022/09/16 05:01:34;;;;;;;;;22.00;21.25;;;;;21.54;49.02;97809.31;6145439;28;97179;-57
2022/09/16 05:04:39;;;;;;;;;25.80;25.60;;;;;21.55;48.90;97811.72;6161539;28;96452;-67
2022/09/16 05:07:43;;;;;;;;;41.00;35.50;;;;;21.59;49.01;97825.63;6158730;28;97400;-60
2022/09/16 05:10:48;;;;;;;;;50.00;42.33;;;;;21.63;49.07;97823.88;6157626;28;97469;-58
2022/09/16 05:13:54;;;;;;;;;45.60;38.80;;;;;21.67;48.99;97827.56;6159619;28;97437;-57
2022/09/16 05:16:57;;;;;;;;;60.80;50.40;;;;;21.73;48.89;97820.00;6160669;28;97568;-58
2022/09/16 05:20:02;;;;;;;;;43.67;37.67;;;;;21.79;48.86;97830.53;6163018;28;97443;-58
2022/09/16 05:23:05;;;;;;;;;42.00;36.50;;;;;21.85;48.80;97831.16;6163624;28;97433;-58
2022/09/16 05:26:13;;;;;;;;;69.40;60.00;;;;;21.92;49.64;97821.34;6161924;28;97116;-58
2022/09/16 05:29:17;;;;;;;;;11.00;10.50;;;;;21.91;49.36;97822.47;6162380;28;97147;-63
2022/09/16 05:32:21;;;;;;;;;11.80;10.60;;;;;21.57;49.42;97793.03;6162133;28;96904;-62
2022/09/16 05:35:24;;;;;;;;;14.00;12.00;;;;;21.41;49.82;97822.00;6161764;28;96532;-62
2022/09/16 05:38:27;;;;;;;;;11.50;10.50;;;;;21.09;50.42;97830.56;6161913;28;96939;-65
2022/09/16 05:41:32;;;;;;;;;11.00;9.00;;;;;21.01;51.04;97828.63;6144472;28;99495;-62
2022/09/16 05:44:36;;;;;;;;;11.40;11.40;;;;;20.88;50.94;97829.50;6161136;28;96987;-62
2022/09/16 05:47:39;;;;;;;;;9.20;9.00;;;;;20.89;51.31;97826.44;6161980;28;96446;-63
2022/09/16 05:50:51;;;;;;;;;8.00;8.00;;;;;20.90;50.78;97819.03;6161484;28;97226;-64
2022/09/16 05:53:55;;;;;;;;;9.20;8.60;;;;;20.78;50.62;97808.66;6162063;28;96577;-63
2022/09/16 05:57:00;;;;;;;;;9.60;9.40;;;;;20.83;50.75;97814.00;6163512;28;96373;-63
2022/09/16 06:00:10;;;;;;;;;8.00;7.00;;;;;20.84;50.28;97810.13;6165116;28;97045;-64
2022/09/16 06:03:14;;;;;;;;;10.40;9.40;;;;;20.88;50.25;97822.09;6164814;28;97423;-62
2022/09/16 06:06:23;;;;;;;;;12.00;10.50;;;;;20.96;49.67;97806.81;6165496;28;96928;-64
2022/09/16 06:09:26;;;;;;;;;8.00;8.00;;;;;21.01;49.48;97799.25;6165444;28;97500;-64
2022/09/16 06:12:31;;;;;;;;;11.00;10.00;;;;;21.11;48.45;97789.97;6164417;28;97771;-63
2022/09/16 06:15:34;;;;;;;;;9.00;9.00;;;;;21.22;48.95;97795.97;6165586;28;96403;-62
2022/09/16 06:18:38;;;;;;;;;8.00;6.80;;;;;21.24;48.32;97796.50;6165585;28;96784;-63
2022/09/16 06:21:42;;;;;;;;;8.00;8.00;;;;;21.34;47.97;97807.16;6164213;28;96798;-63
2022/09/16 06:24:45;;;;;;;;;7.80;7.20;;;;;21.49;48.00;97804.00;6164467;28;96662;-63
2022/09/16 06:27:50;;;;;;;;;7.00;7.00;;;;;21.55;46.78;97805.47;6164479;28;97168;-63
2022/09/16 06:31:02;;;;;;;;;7.60;7.00;;;;;21.67;46.08;97807.56;6165340;28;97068;-62
2022/09/16 06:34:06;;;;;;;;;6.00;6.00;;;;;21.80;46.14;97809.34;6165642;28;97885;-63
2022/09/16 06:37:11;;;;;;;;;7.80;7.00;;;;;21.97;46.72;97801.19;6165558;28;97105;-62
2022/09/16 06:40:15;;;;;;;;;7.00;7.00;;;;;22.06;45.07;97809.41;6164739;28;96704;-64
2022/09/16 06:43:20;;;;;;;;;6.00;6.00;;;;;22.24;45.16;97802.78;6164964;28;96844;-63
2022/09/16 06:46:25;;;;;;;;;7.00;7.00;;;;;22.50;44.71;97802.78;6165515;28;96527;-63
2022/09/16 06:49:29;;;;;;;;;5.00;5.00;;;;;22.74;43.82;97805.84;6165528;28;97338;-63
2022/09/16 06:52:32;;;;;;;;;6.60;5.60;;;;;23.00;43.55;97812.06;6165333;28;96553;-62
2022/09/16 06:55:36;;;;;;;;;5.00;4.00;;;;;23.27;42.13;97806.13;6165338;28;96518;-63
2022/09/16 06:58:42;;;;;;;;;5.80;5.00;;;;;23.28;41.49;97812.44;6163084;28;97439;-63
2022/09/16 07:01:46;;;;;;;;;5.00;5.00;;;;;23.53;41.24;97805.25;6165515;28;97508;-64
2022/09/16 07:04:50;;;;;;;;;5.00;4.75;;;;;23.72;39.88;97808.34;6162865;28;99425;-64
2022/09/16 07:07:53;;;;;;;;;5.00;5.00;;;;;24.01;39.79;97813.03;6166185;28;96551;-64
2022/09/16 07:10:58;;;;;;;;;5.00;4.40;;;;;24.18;39.41;97807.44;6164749;28;97439;-63
2022/09/16 07:14:03;;;;;;;;;4.00;4.00;;;;;24.41;38.50;97805.13;6161262;28;96480;-63
2022/09/16 07:17:07;;;;;;;;;4.60;4.00;;;;;24.43;37.34;97806.41;6164831;28;96989;-62
2022/09/16 07:20:11;;;;;;;;;5.60;4.60;;;;;24.83;38.60;97800.31;6163100;28;97077;-66
2022/09/16 07:23:14;;;;;;;;;5.00;4.00;;;;;24.86;37.31;97816.19;6147178;28;99551;-63
2022/09/16 07:26:20;;;;;;;;;4.00;4.00;;;;;24.88;36.53;97813.91;6164871;28;97542;-64
2022/09/16 07:29:25;;;;;;;;;5.00;5.00;;;;;24.82;36.21;97807.78;6164043;28;97463;-65
2022/09/16 07:32:28;;;;;;;;;3.00;3.00;;;;;25.15;35.92;97809.72;6164620;28;96476;-66
2022/09/16 07:35:31;;;;;;;;;5.00;5.00;;;;;25.40;34.99;97787.34;6164488;28;97811;-64
2022/09/16 07:38:35;;;;;;;;;4.00;4.00;;;;;25.67;33.67;97807.91;6147818;28;98118;-64
2022/09/16 07:41:40;;;;;;;;;5.00;4.50;;;;;25.82;33.87;97804.44;6140233;28;97511;-62
2022/09/16 07:44:44;;;;;;;;;4.00;4.00;;;;;26.40;33.26;97799.50;6139469;28;97933;-64
2022/09/16 07:47:50;;;;;;;;;5.40;5.40;;;;;26.49;33.46;97802.91;6146629;28;97500;-65
2022/09/16 07:50:57;;;;;;;;;5.00;4.00;;;;;26.61;33.19;97807.59;6162181;28;96901;-63
2022/09/16 07:54:04;;;;;;;;;3.00;3.00;;;;;26.82;32.51;97807.38;6163917;28;97400;-62
2022/09/16 07:57:07;;;;;;;;;5.00;4.40;;;;;26.05;33.36;97807.50;6161710;28;96734;-64
2022/09/16 08:00:15;;;;;;;;;7.00;5.00;;;;;25.63;34.22;97808.97;6163065;28;96495;-63
2022/09/16 08:03:18;;;;;;;;;4.00;4.00;;;;;25.11;35.17;97804.09;6163685;28;96548;-65
2022/09/16 08:06:23;;;;;;;;;5.00;5.00;;;;;24.57;36.55;97820.69;6163452;28;97380;-63
2022/09/16 08:09:27;;;;;;;;;5.00;5.00;;;;;24.28;37.15;97819.97;6161281;28;96694;-62
2022/09/16 08:12:50;;;;;;;;;6.00;5.00;;;;;24.06;37.65;97819.13;6161571;28;97208;-63
2022/09/16 08:16:00;;;;;;;;;6.00;6.00;;;;;24.05;37.73;97817.50;6162291;28;96855;-65
2022/09/16 08:19:04;;;;;;;;;6.00;6.00;;;;;24.14;37.40;97817.47;6162104;28;97419;-63
2022/09/16 08:22:07;;;;;;;;;5.00;5.00;;;;;24.43;36.84;97822.13;6163151;28;97410;-64
2022/09/16 08:25:11;;;;;;;;;8.00;7.00;;;;;24.81;36.69;97831.00;6163473;28;96455;-66
2022/09/16 08:28:15;;;;;;;;;5.50;5.00;;;;;24.70;36.32;97838.06;6163210;28;97496;-62
2022/09/16 08:31:20;;;;;;;;;6.80;6.00;;;;;24.95;35.87;97826.00;6162168;28;98336;-62
2022/09/16 08:34:24;;;;;;;;;5.20;5.20;;;;;25.06;35.44;97826.38;6162136;28;97446;-63
2022/09/16 08:37:27;;;;;;;;;7.00;7.00;;;;;25.60;34.72;97828.97;6161576;28;96674;-64
2022/09/16 08:40:36;;;;;;;;;5.60;4.60;;;;;25.20;35.52;97823.28;6160662;28;99542;-62
2022/09/16 08:43:44;;;;;;;;;5.00;4.20;;;;;24.98;36.17;97830.81;6156799;28;96649;-63
2022/09/16 08:46:53;;;;;;;;;7.00;6.00;;;;;24.57;36.18;97819.88;6162928;28;97544;-63
2022/09/16 08:50:00;;;;;;;;;5.40;5.40;;;;;25.14;35.30;97821.88;6163243;28;96994;-63
2022/09/16 08:53:10;;;;;;;;;7.00;7.00;;;;;25.10;36.17;97818.22;6161232;28;98504;-63
2022/09/16 08:56:17;;;;;;;;;6.00;5.00;;;;;24.98;36.30;97824.50;6162041;28;97357;-63
2022/09/16 08:59:25;;;;;;;;;7.00;6.40;;;;;24.72;36.68;97819.25;6162771;28;96925;-62
2022/09/16 09:02:39;;;;;;;;;8.60;7.00;;;;;24.43;37.27;97830.38;6163209;28;96994;-61
2022/09/16 09:05:50;;;;;;;;;6.50;6.00;;;;;24.03;37.53;97811.56;6161425;28;97625;-62
2022/09/16 09:09:03;;;;;;;;;6.00;6.00;;;;;23.70;38.07;97818.91;6178161;28;98055;-62
2022/09/16 09:12:13;;;;;;;;;8.00;6.00;;;;;23.48;38.78;97824.69;6162745;28;97489;-61
2022/09/16 09:15:30;;;;;;;;;5.00;5.00;;;;;23.29;38.54;97831.38;6162707;28;97473;-62
2022/09/16 09:18:44;;;;;;;;;5.40;5.40;;;;;23.17;39.69;97816.69;6161314;28;96795;-63
2022/09/16 09:21:59;;;;;;;;;7.00;6.60;;;;;23.07;39.96;97819.78;6159435;28;96520;-61
2022/09/16 09:25:21;;;;;;;;;7.00;6.60;;;;;22.92;40.73;97812.13;6162317;28;97054;-61
2022/09/16 09:28:44;;;;;;;;;6.00;6.00;;;;;22.88;41.31;97820.19;6162442;28;96489;-62
2022/09/16 09:31:57;;;;;;;;;7.00;7.00;;;;;23.36;40.67;97819.84;6160983;28;96531;-63
2022/09/16 09:35:15;;;;;;;;;5.00;4.00;;;;;23.52;39.78;97820.94;6137674;28;96466;-63
2022/09/16 09:38:45;;;;;;;;;5.60;5.00;;;;;23.64;38.87;97821.03;6152538;28;96685;-63
2022/09/16 09:41:52;;;;;;;;;6.00;6.00;;;;;23.69;39.02;97825.53;6161811;28;97016;-62
2022/09/16 09:45:00;;;;;;;;;6.00;6.00;;;;;23.63;38.96;97827.69;6162009;28;96475;-62
2022/09/16 09:48:18;;;;;;;;;6.25;5.00;;;;;23.68;39.21;97823.94;6160699;28;96689;-62
2022/09/16 09:51:30;;;;;;;;;6.60;6.00;;;;;23.57;39.76;97822.69;6161996;28;97660;-63
2022/09/16 09:54:35;;;;;;;;;6.00;6.00;;;;;23.52;39.27;97834.69;6162009;28;96446;-61
2022/09/16 09:57:45;;;;;;;;;6.00;5.00;;;;;23.57;39.67;97830.94;6160360;28;97414;-63
2022/09/16 10:00:51;;;;;;;;;4.80;4.80;;;;;23.59;39.78;97817.69;6159768;28;96954;-61
2022/09/16 10:03:56;;;;;;;;;5.75;5.75;;;;;23.59;39.96;97823.97;6162250;28;97449;-61
2022/09/16 10:07:01;;;;;;;;;5.00;5.00;;;;;23.52;40.06;97823.69;6161684;28;96522;-61
2022/09/16 10:10:15;;;;;;;;;5.00;5.00;;;;;23.47;39.79;97818.38;6162210;28;97484;-61
2022/09/16 10:13:20;;;;;;;;;7.00;7.00;;;;;23.47;39.95;97820.31;6161490;28;96470;-62
2022/09/16 10:16:29;;;;;;;;;5.40;5.40;;;;;23.43;39.84;97816.59;6159590;28;96623;-62
2022/09/16 10:19:38;;;;;;;;;4.50;4.50;;;;;23.42;39.51;97828.72;6159358;28;97826;-61
2022/09/16 10:22:57;;;;;;;;;5.00;4.00;;;;;23.30;39.41;97822.00;6158075;28;96864;-63
2022/09/16 10:26:07;;;;;;;;;6.00;6.00;;;;;23.16;39.86;97821.41;6158817;28;97610;-63
2022/09/16 10:29:16;;;;;;;;;6.40;6.40;;;;;23.06;39.86;97816.28;6158365;28;96805;-64
2022/09/16 10:32:20;;;;;;;;;4.75;4.00;;;;;23.07;39.73;97812.34;6155430;28;96639;-63
2022/09/16 10:35:26;;;;;;;;;5.00;5.00;;;;;23.17;39.24;97812.00;6153634;28;97431;-63
2022/09/16 10:38:39;;;;;;;;;6.00;6.00;;;;;23.34;37.61;97800.13;6157354;28;98007;-62
2022/09/16 10:41:45;;;;;;;;;5.00;5.00;;;;;23.67;37.87;97806.59;6156187;28;97820;-63
2022/09/16 10:44:50;;;;;;;;;7.00;5.80;;;;;24.29;37.00;97797.59;6160934;28;100313;-62
2022/09/16 10:47:58;;;;;;;;;5.20;5.20;;;;;24.92;36.29;97796.34;6161087;28;97410;-63
2022/09/16 10:51:21;;;;;;;;;5.00;5.00;;;;;25.52;34.55;97807.78;6163218;28;97589;-62
2022/09/16 10:54:28;;;;;;;;;4.00;4.00;;;;;25.79;34.38;97805.16;6162793;28;97427;-63
2022/09/16 10:57:35;;;;;;;;;4.00;4.00;;;;;26.17;33.98;97795.63;6157334;28;96374;-65
2022/09/16 11:00:49;;;;;;;;;6.00;5.60;;;;;26.26;33.36;97819.22;6162613;28;98433;-62
2022/09/16 11:04:17;;;;;;;;;4.00;4.00;;;;;26.20;33.47;97808.72;6165133;28;97088;-65
2022/09/16 11:07:34;;;;;;;;;4.00;4.00;;;;;26.32;33.56;97799.66;6165317;28;97701;-63
2022/09/16 11:10:48;;;;;;;;;5.00;5.00;;;;;26.08;33.43;97801.31;6164327;28;97413;-62
2022/09/16 11:13:59;;;;;;;;;5.40;5.00;;;;;26.24;33.68;97798.66;6164997;28;97422;-62
2022/09/16 11:17:18;;;;;;;;;6.00;6.00;;;;;26.71;32.83;97791.31;6164501;28;97071;-61
2022/09/16 11:20:55;;;;;;;;;5.00;5.00;;;;;27.02;32.87;97792.53;6159928;28;97359;-61
2022/09/16 11:24:14;;;;;;;;;5.00;5.00;;;;;27.06;32.70;97783.16;6131003;28;96869;-62
2022/09/16 11:27:31;;;;;;;;;4.67;4.67;;;;;27.05;32.59;97792.63;6162529;28;98612;-62
2022/09/16 11:30:41;;;;;;;;;5.00;4.40;;;;;27.24;31.87;97778.06;6164628;28;97500;-61
2022/09/16 11:33:52;;;;;;;;;4.60;4.00;;;;;27.62;32.18;97777.44;6164408;28;96730;-61
2022/09/16 11:37:06;;;;;;;;;5.00;5.00;;;;;28.02;31.67;97771.63;6162709;28;100940;-62
2022/09/16 11:40:22;;;;;;;;;6.00;6.00;;;;;28.21;30.56;97771.66;6164597;28;96488;-62
2022/09/16 11:44:03;;;;;;;;;5.00;5.00;;;;;28.08;28.84;97775.72;6163980;28;97419;-62
2022/09/16 11:47:27;;;;;;;;;3.25;3.25;;;;;28.08;28.00;97767.41;6163240;28;97419;-61
2022/09/16 11:50:41;;;;;;;;;4.00;4.00;;;;;28.44;29.09;97764.22;6161481;28;97614;-63
2022/09/16 11:54:09;;;;;;;;;3.00;3.00;;;;;28.76;28.31;97750.19;6162966;28;97453;-62
2022/09/16 11:57:16;;;;;;;;;3.00;3.00;;;;;29.16;27.17;97756.06;6145920;28;98810;-62
2022/09/16 12:00:21;;;;;;;;;6.00;6.00;;;;;29.54;27.32;97760.66;6161627;28;97553;-63
2022/09/16 12:03:31;;;;;;;;;3.40;3.40;;;;;29.71;26.64;97762.13;6160714;28;97954;-62
2022/09/16 12:06:40;;;;;;;;;5.00;4.00;;;;;29.33;26.42;97759.53;6171928;28;96848;-62
2022/09/16 12:09:50;;;;;;;;;4.00;4.00;;;;;28.95;27.41;97775.13;6160763;28;96681;-61
2022/09/16 12:12:58;;;;;;;;;2.00;2.00;;;;;28.42;27.48;97751.88;6161444;28;97416;-62
2022/09/16 12:16:08;;;;;;;;;4.00;4.00;;;;;28.01;28.33;97758.91;6161537;28;97551;-63
2022/09/16 12:19:18;;;;;;;;;3.00;3.00;;;;;27.64;30.04;97766.81;6160968;28;97897;-64
2022/09/16 12:22:30;;;;;;;;;5.00;4.00;;;;;26.76;29.32;97764.53;6163134;28;97351;-64
2022/09/16 12:25:42;;;;;;;;;5.60;5.40;;;;;26.38;31.82;97781.66;6162158;28;97417;-64
2022/09/16 12:28:59;;;;;;;;;4.00;4.00;;;;;25.70;33.97;97787.91;6160198;28;96680;-63
2022/09/16 12:32:10;;;;;;;;;6.00;5.00;;;;;25.13;33.92;97789.94;6134744;28;98346;-64
2022/09/16 12:35:17;;;;;;;;;4.00;4.00;;;;;24.49;34.53;97796.75;6137797;28;96437;-64
2022/09/16 12:38:21;;;;;;;;;4.00;4.00;;;;;24.01;35.48;97771.72;6121324;28;96620;-63
2022/09/16 12:41:52;;;;;;;;;4.50;4.50;;;;;23.75;36.23;97793.91;6135783;28;96820;-63
2022/09/16 12:45:16;;;;;;;;;3.50;3.50;;;;;23.52;37.33;97781.63;6137733;28;97037;-64
2022/09/16 12:49:01;;;;;;;;;2.20;2.00;;;;;23.18;38.03;97769.63;6152893;28;97576;-63
2022/09/16 12:52:24;;;;;;;;;3.00;2.75;;;;;23.11;38.47;97777.59;6081714;28;97675;-63
2022/09/16 12:55:49;;;;;;;;;2.80;2.80;;;;;23.05;37.88;97787.16;6138900;28;97034;-63
2022/09/16 12:59:11;;;;;;;;;2.20;2.20;;;;;22.87;37.96;97769.91;6138926;28;97542;-64
2022/09/16 13:02:18;;;;;;;;;3.00;3.00;;;;;22.83;37.81;97771.69;6138999;28;97446;-63
2022/09/16 13:05:28;;;;;;;;;2.75;2.75;;;;;22.76;37.78;97762.38;6137445;28;96986;-63
2022/09/16 13:08:37;;;;;;;;;2.00;2.00;;;;;22.67;38.10;97759.63;6139041;28;97519;-63
2022/09/16 13:11:40;;;;;;;;;3.00;3.00;;;;;22.59;38.21;97762.38;6138654;28;96958;-64
2022/09/16 13:15:06;;;;;;;;;3.80;3.00;;;;;22.48;38.59;97766.63;6138870;28;96637;-64
2022/09/16 13:18:25;;;;;;;;;2.00;2.00;;;;;22.43;39.16;97760.13;6138324;28;97410;-63
2022/09/16 13:21:39;;;;;;;;;3.00;3.00;;;;;22.41;39.55;97756.13;6138673;28;98012;-63
2022/09/16 13:24:48;;;;;;;;;3.00;2.00;;;;;22.34;39.46;97762.09;6154126;28;97062;-63
2022/09/16 13:28:00;;;;;;;;;3.00;3.00;;;;;22.32;39.68;97756.13;6162921;28;96885;-64
2022/09/16 13:31:19;;;;;;;;;3.80;3.80;;;;;22.32;39.85;97752.59;6158885;28;96889;-63
2022/09/16 13:34:23;;;;;;;;;5.00;4.60;;;;;22.23;40.72;97747.09;6157794;28;96732;-64
2022/09/16 13:37:28;;;;;;;;;3.20;3.00;;;;;22.19;40.59;97759.03;6161405;28;96941;-64
2022/09/16 13:40:32;;;;;;;;;2.20;2.00;;;;;22.11;40.79;97751.63;6159779;28;97192;-64
2022/09/16 13:43:37;;;;;;;;;5.40;4.40;;;;;22.03;41.30;97747.75;6161252;28;96445;-63
2022/09/16 13:46:40;;;;;;;;;4.00;4.00;;;;;22.09;41.49;97749.19;6160500;28;96998;-63
2022/09/16 13:49:48;;;;;;;;;4.00;4.00;;;;;22.02;40.82;97744.22;6159670;28;96767;-65
2022/09/16 13:52:53;;;;;;;;;4.40;4.00;;;;;22.09;41.17;97743.69;6159635;28;97570;-65
2022/09/16 13:56:05;;;;;;;;;4.00;4.00;;;;;22.16;40.94;97741.28;6143789;28;99748;-63
2022/09/16 13:59:29;;;;;;;;;4.00;4.00;;;;;22.20;40.89;97744.19;6161444;28;97281;-63
2022/09/16 14:02:47;;;;;;;;;5.00;5.00;;;;;22.20;40.73;97750.47;6158767;28;97035;-65
2022/09/16 14:06:10;;;;;;;;;6.00;6.00;;;;;22.23;40.89;97740.81;6158353;28;97421;-63
2022/09/16 14:09:28;;;;;;;;;5.00;5.00;;;;;22.21;40.94;97734.81;6143027;28;98965;-63
2022/09/16 14:12:43;;;;;;;;;4.00;4.00;;;;;22.27;40.98;97734.34;6158893;28;97224;-65
2022/09/16 14:15:49;;;;;;;;;6.00;6.00;;;;;22.25;41.25;97725.59;6160215;28;96823;-63
2022/09/16 14:18:59;;;;;;;;;6.00;5.40;;;;;22.36;41.08;97715.91;6164430;28;97004;-63
2022/09/16 14:22:05;;;;;;;;;4.00;4.00;;;;;22.50;41.04;97720.38;6164265;28;97506;-63
2022/09/16 14:25:29;;;;;;;;;6.40;6.00;;;;;22.46;41.46;97715.56;6162725;28;97465;-63
2022/09/16 14:28:33;;;;;;;;;5.00;5.00;;;;;22.43;41.27;97718.94;6163638;28;97638;-63
2022/09/16 14:31:44;;;;;;;;;7.00;7.00;;;;;22.44;41.24;97717.00;6145412;28;99856;-63
2022/09/16 14:34:51;;;;;;;;;6.80;6.40;;;;;22.45;41.61;97719.44;6161215;28;97785;-63
2022/09/16 14:37:58;;;;;;;;;5.00;5.00;;;;;22.38;42.03;97710.88;6161502;28;96827;-64
2022/09/16 14:41:06;;;;;;;;;8.00;7.40;;;;;22.41;41.43;97713.00;6162031;28;97038;-63
2022/09/16 14:44:17;;;;;;;;;6.00;5.00;;;;;22.45;41.59;97711.19;6163673;28;97477;-64